sensor_id;sensor_type;location;lat;lon;timestamp;P1;durP1;ratioP1;P2;durP2;ratioP2
48006;SDS011;33771;48.180;11.400;2023-04-24T00:00:02;1.87;;;1.23;;
48006;SDS011;33771;48.180;11.400;2023-04-24T00:02:33;2.57;;;1.23;;
48006;SDS011;33771;48.180;11.400;2023-04-24T00:04:59;2.03;;;1.13;;
48006;SDS011;33771;48.180;11.400;2023-04-24T00:07:27;2.37;;;1.40;;
48006;SDS011;33771;48.180;11.400;2023-04-24T00:09:53;2.27;;;1.20;;
48006;SDS011;33771;48.180;11.400;2023-04-24T00:12:19;2.43;;;1.60;;
48006;SDS011;33771;48.180;11.400;2023-04-24T00:14:45;2.70;;;1.43;;
48006;SDS011;33771;48.180;11.400;2023-04-24T00:17:11;2.73;;;1.20;;
48006;SDS011;33771;48.180;11.400;2023-04-24T00:19:36;4.50;;;1.30;;
48006;SDS011;33771;48.180;11.400;2023-04-24T00:22:02;2.60;;;1.30;;
48006;SDS011;33771;48.180;11.400;2023-04-24T00:24:28;2.43;;;1.23;;
48006;SDS011;33771;48.180;11.400;2023-04-24T00:26:54;1.57;;;1.10;;
48006;SDS011;33771;48.180;11.400;2023-04-24T00:29:19;3.83;;;1.20;;
48006;SDS011;33771;48.180;11.400;2023-04-24T00:31:45;2.73;;;1.30;;
48006;SDS011;33771;48.180;11.400;2023-04-24T00:34:10;2.37;;;1.27;;
48006;SDS011;33771;48.180;11.400;2023-04-24T00:36:37;3.47;;;1.20;;
48006;SDS011;33771;48.180;11.400;2023-04-24T00:39:03;2.60;;;1.20;;
48006;SDS011;33771;48.180;11.400;2023-04-24T00:41:28;1.73;;;1.07;;
48006;SDS011;33771;48.180;11.400;2023-04-24T00:43:54;2.80;;;1.10;;
48006;SDS011;33771;48.180;11.400;2023-04-24T00:46:20;2.10;;;1.10;;
48006;SDS011;33771;48.180;11.400;2023-04-24T00:48:46;1.00;;;0.90;;
48006;SDS011;33771;48.180;11.400;2023-04-24T00:51:12;1.80;;;1.10;;
48006;SDS011;33771;48.180;11.400;2023-04-24T00:53:37;1.93;;;1.00;;
48006;SDS011;33771;48.180;11.400;2023-04-24T00:56:03;2.10;;;1.03;;
48006;SDS011;33771;48.180;11.400;2023-04-24T00:58:30;1.90;;;1.00;;
48006;SDS011;33771;48.180;11.400;2023-04-24T01:00:56;1.17;;;0.87;;
48006;SDS011;33771;48.180;11.400;2023-04-24T01:03:26;1.60;;;0.90;;
48006;SDS011;33771;48.180;11.400;2023-04-24T01:05:56;1.70;;;0.93;;
48006;SDS011;33771;48.180;11.400;2023-04-24T01:08:23;1.70;;;1.00;;
48006;SDS011;33771;48.180;11.400;2023-04-24T01:10:50;2.40;;;1.10;;
48006;SDS011;33771;48.180;11.400;2023-04-24T01:13:17;1.93;;;1.07;;
48006;SDS011;33771;48.180;11.400;2023-04-24T01:15:44;0.90;;;0.70;;
48006;SDS011;33771;48.180;11.400;2023-04-24T01:18:10;1.17;;;0.77;;
48006;SDS011;33771;48.180;11.400;2023-04-24T01:20:36;1.43;;;0.80;;
48006;SDS011;33771;48.180;11.400;2023-04-24T01:23:05;0.90;;;0.80;;
48006;SDS011;33771;48.180;11.400;2023-04-24T01:25:31;1.90;;;0.80;;
48006;SDS011;33771;48.180;11.400;2023-04-24T01:27:57;1.10;;;0.97;;
48006;SDS011;33771;48.180;11.400;2023-04-24T01:30:23;1.10;;;0.80;;
48006;SDS011;33771;48.180;11.400;2023-04-24T01:32:49;1.30;;;1.00;;
48006;SDS011;33771;48.180;11.400;2023-04-24T01:35:15;0.70;;;0.70;;
48006;SDS011;33771;48.180;11.400;2023-04-24T01:37:40;0.80;;;0.80;;
48006;SDS011;33771;48.180;11.400;2023-04-24T01:40:06;1.83;;;1.00;;
48006;SDS011;33771;48.180;11.400;2023-04-24T01:42:32;1.43;;;0.70;;
48006;SDS011;33771;48.180;11.400;2023-04-24T01:44:59;3.03;;;0.90;;
48006;SDS011;33771;48.180;11.400;2023-04-24T01:47:27;1.50;;;0.90;;
48006;SDS011;33771;48.180;11.400;2023-04-24T01:49:54;1.83;;;0.90;;
48006;SDS011;33771;48.180;11.400;2023-04-24T01:52:20;0.90;;;0.77;;
48006;SDS011;33771;48.180;11.400;2023-04-24T01:54:45;1.53;;;0.90;;
48006;SDS011;33771;48.180;11.400;2023-04-24T01:57:11;1.20;;;0.80;;
48006;SDS011;33771;48.180;11.400;2023-04-24T01:59:37;1.37;;;0.90;;
48006;SDS011;33771;48.180;11.400;2023-04-24T02:02:02;3.77;;;0.80;;
48006;SDS011;33771;48.180;11.400;2023-04-24T02:04:28;1.50;;;0.97;;
48006;SDS011;33771;48.180;11.400;2023-04-24T02:06:54;2.10;;;0.80;;
48006;SDS011;33771;48.180;11.400;2023-04-24T02:09:20;1.87;;;1.00;;
48006;SDS011;33771;48.180;11.400;2023-04-24T02:11:45;2.90;;;0.83;;
48006;SDS011;33771;48.180;11.400;2023-04-24T02:14:11;1.80;;;0.90;;
48006;SDS011;33771;48.180;11.400;2023-04-24T02:16:37;1.57;;;0.73;;
48006;SDS011;33771;48.180;11.400;2023-04-24T02:19:02;1.90;;;0.90;;
48006;SDS011;33771;48.180;11.400;2023-04-24T02:21:28;3.30;;;0.83;;
48006;SDS011;33771;48.180;11.400;2023-04-24T02:23:55;2.87;;;0.90;;
48006;SDS011;33771;48.180;11.400;2023-04-24T02:26:21;1.47;;;0.80;;
48006;SDS011;33771;48.180;11.400;2023-04-24T02:28:47;1.10;;;0.87;;
48006;SDS011;33771;48.180;11.400;2023-04-24T02:31:12;1.27;;;0.80;;
48006;SDS011;33771;48.180;11.400;2023-04-24T02:33:38;1.33;;;0.80;;
48006;SDS011;33771;48.180;11.400;2023-04-24T02:36:03;1.27;;;0.80;;
48006;SDS011;33771;48.180;11.400;2023-04-24T02:38:29;4.03;;;1.00;;
48006;SDS011;33771;48.180;11.400;2023-04-24T02:40:55;3.03;;;0.90;;
48006;SDS011;33771;48.180;11.400;2023-04-24T02:43:20;1.07;;;0.70;;
48006;SDS011;33771;48.180;11.400;2023-04-24T02:45:46;1.53;;;0.70;;
48006;SDS011;33771;48.180;11.400;2023-04-24T02:48:11;2.97;;;1.43;;
48006;SDS011;33771;48.180;11.400;2023-04-24T02:50:37;1.90;;;0.90;;
48006;SDS011;33771;48.180;11.400;2023-04-24T02:53:03;1.77;;;1.00;;
48006;SDS011;33771;48.180;11.400;2023-04-24T02:55:28;2.27;;;0.90;;
48006;SDS011;33771;48.180;11.400;2023-04-24T02:57:55;1.87;;;1.10;;
48006;SDS011;33771;48.180;11.400;2023-04-24T03:00:20;1.20;;;0.90;;
48006;SDS011;33771;48.180;11.400;2023-04-24T03:02:46;1.60;;;0.90;;
48006;SDS011;33771;48.180;11.400;2023-04-24T03:05:12;4.83;;;1.00;;
48006;SDS011;33771;48.180;11.400;2023-04-24T03:07:37;1.10;;;1.00;;
48006;SDS011;33771;48.180;11.400;2023-04-24T03:10:03;1.37;;;0.97;;
48006;SDS011;33771;48.180;11.400;2023-04-24T03:12:30;1.60;;;0.77;;
48006;SDS011;33771;48.180;11.400;2023-04-24T03:14:56;2.17;;;0.80;;
48006;SDS011;33771;48.180;11.400;2023-04-24T03:17:22;1.33;;;0.90;;
48006;SDS011;33771;48.180;11.400;2023-04-24T03:19:47;2.70;;;1.60;;
48006;SDS011;33771;48.180;11.400;2023-04-24T03:22:13;3.07;;;1.10;;
48006;SDS011;33771;48.180;11.400;2023-04-24T03:24:38;1.30;;;0.90;;
48006;SDS011;33771;48.180;11.400;2023-04-24T03:27:05;2.07;;;1.30;;
48006;SDS011;33771;48.180;11.400;2023-04-24T03:29:30;3.07;;;1.40;;
48006;SDS011;33771;48.180;11.400;2023-04-24T03:31:56;1.90;;;1.20;;
48006;SDS011;33771;48.180;11.400;2023-04-24T03:34:21;1.67;;;1.10;;
48006;SDS011;33771;48.180;11.400;2023-04-24T03:36:47;3.63;;;0.97;;
48006;SDS011;33771;48.180;11.400;2023-04-24T03:39:12;2.83;;;1.00;;
48006;SDS011;33771;48.180;11.400;2023-04-24T03:41:38;3.60;;;1.10;;
48006;SDS011;33771;48.180;11.400;2023-04-24T03:44:04;2.93;;;1.20;;
48006;SDS011;33771;48.180;11.400;2023-04-24T03:46:29;1.40;;;1.00;;
48006;SDS011;33771;48.180;11.400;2023-04-24T03:48:55;2.40;;;1.37;;
48006;SDS011;33771;48.180;11.400;2023-04-24T03:51:20;2.63;;;1.00;;
48006;SDS011;33771;48.180;11.400;2023-04-24T03:53:46;2.97;;;1.10;;
48006;SDS011;33771;48.180;11.400;2023-04-24T03:56:12;2.37;;;1.17;;
48006;SDS011;33771;48.180;11.400;2023-04-24T03:58:37;1.73;;;1.00;;
48006;SDS011;33771;48.180;11.400;2023-04-24T04:01:03;2.10;;;1.00;;
48006;SDS011;33771;48.180;11.400;2023-04-24T04:03:29;2.13;;;1.17;;
48006;SDS011;33771;48.180;11.400;2023-04-24T04:05:54;4.33;;;1.90;;
48006;SDS011;33771;48.180;11.400;2023-04-24T04:08:20;3.17;;;1.40;;
48006;SDS011;33771;48.180;11.400;2023-04-24T04:10:45;2.47;;;1.13;;
48006;SDS011;33771;48.180;11.400;2023-04-24T04:13:11;2.57;;;1.50;;
48006;SDS011;33771;48.180;11.400;2023-04-24T04:15:37;2.20;;;1.10;;
48006;SDS011;33771;48.180;11.400;2023-04-24T04:18:02;3.77;;;1.00;;
48006;SDS011;33771;48.180;11.400;2023-04-24T04:20:28;1.83;;;1.13;;
48006;SDS011;33771;48.180;11.400;2023-04-24T04:22:53;1.83;;;1.07;;
48006;SDS011;33771;48.180;11.400;2023-04-24T04:25:19;3.10;;;1.47;;
48006;SDS011;33771;48.180;11.400;2023-04-24T04:27:45;1.70;;;1.10;;
48006;SDS011;33771;48.180;11.400;2023-04-24T04:30:12;2.77;;;1.10;;
48006;SDS011;33771;48.180;11.400;2023-04-24T04:32:38;1.27;;;1.00;;
48006;SDS011;33771;48.180;11.400;2023-04-24T04:35:04;1.40;;;0.90;;
48006;SDS011;33771;48.180;11.400;2023-04-24T04:37:30;2.03;;;1.00;;
48006;SDS011;33771;48.180;11.400;2023-04-24T04:39:56;1.93;;;1.00;;
48006;SDS011;33771;48.180;11.400;2023-04-24T04:42:23;1.50;;;1.13;;
48006;SDS011;33771;48.180;11.400;2023-04-24T04:44:49;4.40;;;1.30;;
48006;SDS011;33771;48.180;11.400;2023-04-24T04:47:15;2.07;;;1.10;;
48006;SDS011;33771;48.180;11.400;2023-04-24T04:49:42;2.40;;;0.90;;
48006;SDS011;33771;48.180;11.400;2023-04-24T04:52:08;1.20;;;0.87;;
48006;SDS011;33771;48.180;11.400;2023-04-24T04:54:34;1.50;;;0.90;;
48006;SDS011;33771;48.180;11.400;2023-04-24T04:57:00;2.63;;;1.10;;
48006;SDS011;33771;48.180;11.400;2023-04-24T04:59:26;1.80;;;0.90;;
48006;SDS011;33771;48.180;11.400;2023-04-24T05:01:51;1.27;;;0.83;;
48006;SDS011;33771;48.180;11.400;2023-04-24T05:04:17;2.80;;;1.10;;
48006;SDS011;33771;48.180;11.400;2023-04-24T05:06:43;1.40;;;1.10;;
48006;SDS011;33771;48.180;11.400;2023-04-24T05:09:08;2.00;;;0.73;;
48006;SDS011;33771;48.180;11.400;2023-04-24T05:11:34;2.53;;;1.17;;
48006;SDS011;33771;48.180;11.400;2023-04-24T05:14:00;2.20;;;1.00;;
48006;SDS011;33771;48.180;11.400;2023-04-24T05:16:26;2.70;;;1.33;;
48006;SDS011;33771;48.180;11.400;2023-04-24T05:18:51;1.77;;;1.10;;
48006;SDS011;33771;48.180;11.400;2023-04-24T05:21:17;2.30;;;1.10;;
48006;SDS011;33771;48.180;11.400;2023-04-24T05:23:42;1.83;;;0.90;;
48006;SDS011;33771;48.180;11.400;2023-04-24T05:26:08;1.67;;;1.00;;
48006;SDS011;33771;48.180;11.400;2023-04-24T05:28:33;1.60;;;0.97;;
48006;SDS011;33771;48.180;11.400;2023-04-24T05:31:01;2.00;;;0.97;;
48006;SDS011;33771;48.180;11.400;2023-04-24T05:33:27;3.43;;;1.00;;
48006;SDS011;33771;48.180;11.400;2023-04-24T05:35:52;1.90;;;1.00;;
48006;SDS011;33771;48.180;11.400;2023-04-24T05:38:18;2.60;;;0.93;;
48006;SDS011;33771;48.180;11.400;2023-04-24T05:40:44;1.83;;;0.93;;
48006;SDS011;33771;48.180;11.400;2023-04-24T05:43:11;2.30;;;1.00;;
48006;SDS011;33771;48.180;11.400;2023-04-24T05:45:37;2.20;;;1.00;;
48006;SDS011;33771;48.180;11.400;2023-04-24T05:48:03;3.70;;;1.50;;
48006;SDS011;33771;48.180;11.400;2023-04-24T05:50:28;3.00;;;0.90;;
48006;SDS011;33771;48.180;11.400;2023-04-24T05:52:54;5.63;;;1.20;;
48006;SDS011;33771;48.180;11.400;2023-04-24T05:55:21;3.33;;;1.00;;
48006;SDS011;33771;48.180;11.400;2023-04-24T05:57:47;2.57;;;0.90;;
48006;SDS011;33771;48.180;11.400;2023-04-24T06:00:12;1.50;;;0.90;;
48006;SDS011;33771;48.180;11.400;2023-04-24T06:02:38;1.30;;;0.80;;
48006;SDS011;33771;48.180;11.400;2023-04-24T06:05:04;3.27;;;1.10;;
48006;SDS011;33771;48.180;11.400;2023-04-24T06:07:30;2.23;;;1.07;;
48006;SDS011;33771;48.180;11.400;2023-04-24T06:09:56;1.93;;;1.07;;
48006;SDS011;33771;48.180;11.400;2023-04-24T06:12:22;4.13;;;1.47;;
48006;SDS011;33771;48.180;11.400;2023-04-24T06:14:47;3.57;;;1.33;;
48006;SDS011;33771;48.180;11.400;2023-04-24T06:17:13;2.53;;;1.27;;
48006;SDS011;33771;48.180;11.400;2023-04-24T06:19:41;2.97;;;1.20;;
48006;SDS011;33771;48.180;11.400;2023-04-24T06:22:06;3.77;;;1.30;;
48006;SDS011;33771;48.180;11.400;2023-04-24T06:24:33;2.70;;;1.20;;
48006;SDS011;33771;48.180;11.400;2023-04-24T06:26:59;1.53;;;0.90;;
48006;SDS011;33771;48.180;11.400;2023-04-24T06:29:26;0.97;;;0.90;;
48006;SDS011;33771;48.180;11.400;2023-04-24T06:31:52;2.20;;;1.10;;
48006;SDS011;33771;48.180;11.400;2023-04-24T06:34:17;1.37;;;0.63;;
48006;SDS011;33771;48.180;11.400;2023-04-24T06:36:43;1.50;;;0.80;;
48006;SDS011;33771;48.180;11.400;2023-04-24T06:39:09;1.40;;;0.70;;
48006;SDS011;33771;48.180;11.400;2023-04-24T06:41:35;1.27;;;0.57;;
48006;SDS011;33771;48.180;11.400;2023-04-24T06:44:00;2.00;;;0.50;;
48006;SDS011;33771;48.180;11.400;2023-04-24T06:46:26;1.10;;;0.70;;
48006;SDS011;33771;48.180;11.400;2023-04-24T06:48:53;0.60;;;0.60;;
48006;SDS011;33771;48.180;11.400;2023-04-24T06:51:24;1.67;;;0.60;;
48006;SDS011;33771;48.180;11.400;2023-04-24T06:53:54;0.83;;;0.60;;
48006;SDS011;33771;48.180;11.400;2023-04-24T06:56:21;1.25;;;0.68;;
48006;SDS011;33771;48.180;11.400;2023-04-24T06:58:47;2.40;;;0.60;;
48006;SDS011;33771;48.180;11.400;2023-04-24T07:01:12;1.07;;;0.70;;
48006;SDS011;33771;48.180;11.400;2023-04-24T07:03:38;1.57;;;0.60;;
48006;SDS011;33771;48.180;11.400;2023-04-24T07:06:04;1.60;;;0.63;;
48006;SDS011;33771;48.180;11.400;2023-04-24T07:08:30;2.17;;;0.60;;
48006;SDS011;33771;48.180;11.400;2023-04-24T07:10:56;1.05;;;0.60;;
48006;SDS011;33771;48.180;11.400;2023-04-24T07:13:22;0.75;;;0.60;;
48006;SDS011;33771;48.180;11.400;2023-04-24T07:15:48;4.93;;;0.65;;
48006;SDS011;33771;48.180;11.400;2023-04-24T07:18:18;0.90;;;0.55;;
48006;SDS011;33771;48.180;11.400;2023-04-24T07:20:44;1.05;;;0.60;;
48006;SDS011;33771;48.180;11.400;2023-04-24T07:23:10;2.38;;;0.77;;
48006;SDS011;33771;48.180;11.400;2023-04-24T07:25:36;1.45;;;0.65;;
48006;SDS011;33771;48.180;11.400;2023-04-24T07:28:01;0.60;;;0.60;;
48006;SDS011;33771;48.180;11.400;2023-04-24T07:30:27;1.17;;;0.55;;
48006;SDS011;33771;48.180;11.400;2023-04-24T07:32:54;1.57;;;0.50;;
48006;SDS011;33771;48.180;11.400;2023-04-24T07:35:20;0.90;;;0.60;;
48006;SDS011;33771;48.180;11.400;2023-04-24T07:37:46;1.30;;;0.60;;
48006;SDS011;33771;48.180;11.400;2023-04-24T07:40:12;1.75;;;0.73;;
48006;SDS011;33771;48.180;11.400;2023-04-24T07:42:38;0.80;;;0.50;;
48006;SDS011;33771;48.180;11.400;2023-04-24T07:45:04;1.15;;;0.77;;
48006;SDS011;33771;48.180;11.400;2023-04-24T07:47:30;1.17;;;0.60;;
48006;SDS011;33771;48.180;11.400;2023-04-24T07:49:56;1.25;;;0.70;;
48006;SDS011;33771;48.180;11.400;2023-04-24T07:52:23;1.17;;;0.60;;
48006;SDS011;33771;48.180;11.400;2023-04-24T07:54:48;0.90;;;0.70;;
48006;SDS011;33771;48.180;11.400;2023-04-24T07:57:14;0.98;;;0.57;;
48006;SDS011;33771;48.180;11.400;2023-04-24T07:59:40;1.27;;;0.70;;
48006;SDS011;33771;48.180;11.400;2023-04-24T08:02:06;1.00;;;0.52;;
48006;SDS011;33771;48.180;11.400;2023-04-24T08:04:32;1.15;;;0.80;;
48006;SDS011;33771;48.180;11.400;2023-04-24T08:06:58;1.65;;;0.90;;
48006;SDS011;33771;48.180;11.400;2023-04-24T08:09:23;1.20;;;0.70;;
48006;SDS011;33771;48.180;11.400;2023-04-24T08:11:49;1.67;;;0.90;;
48006;SDS011;33771;48.180;11.400;2023-04-24T08:14:15;0.75;;;0.68;;
48006;SDS011;33771;48.180;11.400;2023-04-24T08:16:40;0.80;;;0.70;;
48006;SDS011;33771;48.180;11.400;2023-04-24T08:19:06;2.08;;;0.60;;
48006;SDS011;33771;48.180;11.400;2023-04-24T08:21:32;0.95;;;0.60;;
48006;SDS011;33771;48.180;11.400;2023-04-24T08:23:58;0.45;;;0.45;;
48006;SDS011;33771;48.180;11.400;2023-04-24T08:26:23;0.60;;;0.60;;
48006;SDS011;33771;48.180;11.400;2023-04-24T08:28:49;1.33;;;0.60;;
48006;SDS011;33771;48.180;11.400;2023-04-24T08:31:15;2.67;;;0.70;;
48006;SDS011;33771;48.180;11.400;2023-04-24T08:33:40;1.35;;;0.90;;
48006;SDS011;33771;48.180;11.400;2023-04-24T08:36:06;1.93;;;0.93;;
48006;SDS011;33771;48.180;11.400;2023-04-24T08:38:32;1.27;;;0.70;;
48006;SDS011;33771;48.180;11.400;2023-04-24T08:40:59;3.15;;;0.80;;
48006;SDS011;33771;48.180;11.400;2023-04-24T08:43:26;3.40;;;1.27;;
48006;SDS011;33771;48.180;11.400;2023-04-24T08:45:52;1.93;;;1.00;;
48006;SDS011;33771;48.180;11.400;2023-04-24T08:48:21;3.20;;;1.23;;
48006;SDS011;33771;48.180;11.400;2023-04-24T08:50:47;2.07;;;1.00;;
48006;SDS011;33771;48.180;11.400;2023-04-24T08:53:15;3.07;;;1.00;;
48006;SDS011;33771;48.180;11.400;2023-04-24T08:55:41;1.73;;;1.10;;
48006;SDS011;33771;48.180;11.400;2023-04-24T08:58:11;3.70;;;1.17;;
48006;SDS011;33771;48.180;11.400;2023-04-24T09:00:37;2.53;;;1.20;;
48006;SDS011;33771;48.180;11.400;2023-04-24T09:03:04;3.93;;;1.17;;
48006;SDS011;33771;48.180;11.400;2023-04-24T09:05:31;2.87;;;1.30;;
48006;SDS011;33771;48.180;11.400;2023-04-24T09:07:58;1.90;;;1.10;;
48006;SDS011;33771;48.180;11.400;2023-04-24T09:10:26;0.90;;;0.87;;
48006;SDS011;33771;48.180;11.400;2023-04-24T09:12:55;2.97;;;1.13;;
48006;SDS011;33771;48.180;11.400;2023-04-24T09:15:23;1.83;;;1.00;;
48006;SDS011;33771;48.180;11.400;2023-04-24T09:17:49;3.00;;;1.10;;
48006;SDS011;33771;48.180;11.400;2023-04-24T09:20:15;3.97;;;1.10;;
48006;SDS011;33771;48.180;11.400;2023-04-24T09:22:41;1.85;;;1.20;;
48006;SDS011;33771;48.180;11.400;2023-04-24T09:25:08;2.22;;;1.38;;
48006;SDS011;33771;48.180;11.400;2023-04-24T09:27:36;4.85;;;1.30;;
48006;SDS011;33771;48.180;11.400;2023-04-24T09:30:07;1.48;;;1.08;;
48006;SDS011;33771;48.180;11.400;2023-04-24T09:32:33;2.55;;;1.20;;
48006;SDS011;33771;48.180;11.400;2023-04-24T09:35:05;2.25;;;1.50;;
48006;SDS011;33771;48.180;11.400;2023-04-24T09:37:36;4.50;;;1.40;;
48006;SDS011;33771;48.180;11.400;2023-04-24T09:40:19;6.70;;;1.80;;
48006;SDS011;33771;48.180;11.400;2023-04-24T09:42:53;4.60;;;2.17;;
48006;SDS011;33771;48.180;11.400;2023-04-24T09:45:42;3.05;;;1.35;;
48006;SDS011;33771;48.180;11.400;2023-04-24T09:48:10;3.00;;;1.48;;
48006;SDS011;33771;48.180;11.400;2023-04-24T09:50:36;5.60;;;1.60;;
48006;SDS011;33771;48.180;11.400;2023-04-24T09:53:03;3.38;;;1.20;;
48006;SDS011;33771;48.180;11.400;2023-04-24T09:55:30;2.65;;;1.58;;
48006;SDS011;33771;48.180;11.400;2023-04-24T09:57:57;3.63;;;1.40;;
48006;SDS011;33771;48.180;11.400;2023-04-24T10:00:26;1.67;;;1.20;;
48006;SDS011;33771;48.180;11.400;2023-04-24T10:03:05;3.13;;;1.30;;
48006;SDS011;33771;48.180;11.400;2023-04-24T10:05:31;5.95;;;1.40;;
48006;SDS011;33771;48.180;11.400;2023-04-24T10:08:06;1.35;;;1.08;;
48006;SDS011;33771;48.180;11.400;2023-04-24T10:10:37;4.88;;;2.20;;
48006;SDS011;33771;48.180;11.400;2023-04-24T10:13:04;2.63;;;1.50;;
48006;SDS011;33771;48.180;11.400;2023-04-24T10:15:30;8.80;;;1.25;;
48006;SDS011;33771;48.180;11.400;2023-04-24T10:17:57;2.45;;;1.40;;
48006;SDS011;33771;48.180;11.400;2023-04-24T10:20:25;3.45;;;1.30;;
48006;SDS011;33771;48.180;11.400;2023-04-24T10:22:53;3.72;;;1.20;;
48006;SDS011;33771;48.180;11.400;2023-04-24T10:25:20;1.30;;;1.00;;
48006;SDS011;33771;48.180;11.400;2023-04-24T10:27:48;1.30;;;1.10;;
48006;SDS011;33771;48.180;11.400;2023-04-24T10:30:14;1.50;;;1.13;;
48006;SDS011;33771;48.180;11.400;2023-04-24T10:32:40;2.20;;;1.02;;
48006;SDS011;33771;48.180;11.400;2023-04-24T10:35:06;2.25;;;1.27;;
48006;SDS011;33771;48.180;11.400;2023-04-24T10:37:36;3.78;;;1.10;;
48006;SDS011;33771;48.180;11.400;2023-04-24T10:40:05;2.35;;;1.15;;
48006;SDS011;33771;48.180;11.400;2023-04-24T10:42:32;4.20;;;0.88;;
48006;SDS011;33771;48.180;11.400;2023-04-24T10:44:58;2.67;;;1.40;;
48006;SDS011;33771;48.180;11.400;2023-04-24T10:47:26;2.20;;;0.90;;
48006;SDS011;33771;48.180;11.400;2023-04-24T10:49:52;1.77;;;1.00;;
48006;SDS011;33771;48.180;11.400;2023-04-24T10:52:18;1.35;;;0.80;;
48006;SDS011;33771;48.180;11.400;2023-04-24T10:54:45;1.33;;;0.90;;
48006;SDS011;33771;48.180;11.400;2023-04-24T11:00:12;1.60;;;0.90;;
48006;SDS011;33771;48.180;11.400;2023-04-24T11:02:46;0.97;;;0.87;;
48006;SDS011;33771;48.180;11.400;2023-04-24T11:05:18;1.48;;;0.80;;
48006;SDS011;33771;48.180;11.400;2023-04-24T11:11:24;1.60;;;0.90;;
48006;SDS011;33771;48.180;11.400;2023-04-24T11:13:26;1.40;;;0.90;;
48006;SDS011;33771;48.180;11.400;2023-04-24T11:16:29;2.50;;;1.10;;
48006;SDS011;33771;48.180;11.400;2023-04-24T11:19:05;1.63;;;1.05;;
48006;SDS011;33771;48.180;11.400;2023-04-24T11:21:32;2.45;;;1.30;;
48006;SDS011;33771;48.180;11.400;2023-04-24T11:26:48;1.15;;;0.82;;
48006;SDS011;33771;48.180;11.400;2023-04-24T11:29:13;1.45;;;0.90;;
48006;SDS011;33771;48.180;11.400;2023-04-24T11:31:40;1.60;;;0.80;;
48006;SDS011;33771;48.180;11.400;2023-04-24T11:34:07;1.27;;;1.02;;
48006;SDS011;33771;48.180;11.400;2023-04-24T11:36:34;2.05;;;0.73;;
48006;SDS011;33771;48.180;11.400;2023-04-24T11:39:00;2.13;;;0.88;;
48006;SDS011;33771;48.180;11.400;2023-04-24T11:41:26;2.25;;;0.90;;
48006;SDS011;33771;48.180;11.400;2023-04-24T11:43:53;1.13;;;0.95;;
48006;SDS011;33771;48.180;11.400;2023-04-24T11:46:23;1.30;;;1.15;;
48006;SDS011;33771;48.180;11.400;2023-04-24T11:48:51;2.33;;;0.80;;
48006;SDS011;33771;48.180;11.400;2023-04-24T11:51:16;2.55;;;1.00;;
48006;SDS011;33771;48.180;11.400;2023-04-24T11:53:42;3.08;;;1.30;;
48006;SDS011;33771;48.180;11.400;2023-04-24T11:56:10;1.90;;;1.02;;
48006;SDS011;33771;48.180;11.400;2023-04-24T11:58:37;1.58;;;1.17;;
48006;SDS011;33771;48.180;11.400;2023-04-24T12:01:04;3.05;;;1.20;;
48006;SDS011;33771;48.180;11.400;2023-04-24T12:03:30;1.95;;;1.05;;
48006;SDS011;33771;48.180;11.400;2023-04-24T12:06:05;2.50;;;1.10;;
48006;SDS011;33771;48.180;11.400;2023-04-24T12:08:32;2.33;;;1.10;;
48006;SDS011;33771;48.180;11.400;2023-04-24T12:11:02;2.53;;;1.00;;
48006;SDS011;33771;48.180;11.400;2023-04-24T12:13:29;4.75;;;1.20;;
48006;SDS011;33771;48.180;11.400;2023-04-24T12:15:58;2.35;;;1.25;;
48006;SDS011;33771;48.180;11.400;2023-04-24T12:18:24;2.03;;;1.10;;
48006;SDS011;33771;48.180;11.400;2023-04-24T12:20:50;2.15;;;1.10;;
48006;SDS011;33771;48.180;11.400;2023-04-24T12:23:16;1.90;;;1.10;;
48006;SDS011;33771;48.180;11.400;2023-04-24T12:25:42;1.35;;;1.10;;
48006;SDS011;33771;48.180;11.400;2023-04-24T12:28:09;1.73;;;1.17;;
48006;SDS011;33771;48.180;11.400;2023-04-24T12:30:40;3.00;;;1.08;;
48006;SDS011;33771;48.180;11.400;2023-04-24T12:33:09;3.45;;;1.13;;
48006;SDS011;33771;48.180;11.400;2023-04-24T12:35:35;7.25;;;1.23;;
48006;SDS011;33771;48.180;11.400;2023-04-24T12:38:07;2.17;;;1.10;;
48006;SDS011;33771;48.180;11.400;2023-04-24T12:40:40;3.25;;;1.10;;
48006;SDS011;33771;48.180;11.400;2023-04-24T12:43:19;4.07;;;1.10;;
48006;SDS011;33771;48.180;11.400;2023-04-24T12:45:47;2.15;;;1.00;;
48006;SDS011;33771;48.180;11.400;2023-04-24T12:48:13;3.90;;;1.15;;
48006;SDS011;33771;48.180;11.400;2023-04-24T12:50:39;5.97;;;1.10;;
48006;SDS011;33771;48.180;11.400;2023-04-24T12:53:05;3.03;;;1.02;;
48006;SDS011;33771;48.180;11.400;2023-04-24T12:55:34;1.27;;;0.90;;
48006;SDS011;33771;48.180;11.400;2023-04-24T12:57:59;6.43;;;1.38;;
48006;SDS011;33771;48.180;11.400;2023-04-24T13:00:25;3.65;;;1.27;;
48006;SDS011;33771;48.180;11.400;2023-04-24T13:02:51;1.67;;;1.20;;
48006;SDS011;33771;48.180;11.400;2023-04-24T13:05:16;3.63;;;1.60;;
48006;SDS011;33771;48.180;11.400;2023-04-24T13:07:42;3.45;;;1.30;;
48006;SDS011;33771;48.180;11.400;2023-04-24T13:10:08;3.03;;;1.40;;
48006;SDS011;33771;48.180;11.400;2023-04-24T13:12:34;2.47;;;1.30;;
48006;SDS011;33771;48.180;11.400;2023-04-24T13:15:00;3.15;;;1.30;;
48006;SDS011;33771;48.180;11.400;2023-04-24T13:17:25;2.55;;;1.30;;
48006;SDS011;33771;48.180;11.400;2023-04-24T13:19:51;2.90;;;1.30;;
48006;SDS011;33771;48.180;11.400;2023-04-24T13:22:19;2.63;;;1.40;;
48006;SDS011;33771;48.180;11.400;2023-04-24T13:24:45;2.33;;;1.30;;
48006;SDS011;33771;48.180;11.400;2023-04-24T13:27:13;3.17;;;1.10;;
48006;SDS011;33771;48.180;11.400;2023-04-24T13:29:39;4.07;;;1.33;;
48006;SDS011;33771;48.180;11.400;2023-04-24T13:32:05;4.55;;;1.05;;
48006;SDS011;33771;48.180;11.400;2023-04-24T13:34:31;2.53;;;1.48;;
48006;SDS011;33771;48.180;11.400;2023-04-24T13:36:57;3.65;;;1.23;;
48006;SDS011;33771;48.180;11.400;2023-04-24T13:39:23;5.13;;;1.40;;
48006;SDS011;33771;48.180;11.400;2023-04-24T13:41:50;3.10;;;1.40;;
48006;SDS011;33771;48.180;11.400;2023-04-24T13:44:16;5.80;;;1.35;;
48006;SDS011;33771;48.180;11.400;2023-04-24T13:46:43;2.05;;;1.10;;
48006;SDS011;33771;48.180;11.400;2023-04-24T13:49:10;4.63;;;1.20;;
48006;SDS011;33771;48.180;11.400;2023-04-24T13:51:36;2.15;;;1.20;;
48006;SDS011;33771;48.180;11.400;2023-04-24T13:54:02;3.75;;;1.15;;
48006;SDS011;33771;48.180;11.400;2023-04-24T13:56:28;2.10;;;1.27;;
48006;SDS011;33771;48.180;11.400;2023-04-24T13:58:54;2.72;;;1.30;;
48006;SDS011;33771;48.180;11.400;2023-04-24T14:01:19;2.45;;;1.23;;
48006;SDS011;33771;48.180;11.400;2023-04-24T14:03:49;3.65;;;1.25;;
48006;SDS011;33771;48.180;11.400;2023-04-24T14:06:14;4.07;;;1.55;;
48006;SDS011;33771;48.180;11.400;2023-04-24T14:08:40;3.70;;;1.60;;
48006;SDS011;33771;48.180;11.400;2023-04-24T14:11:06;1.95;;;1.40;;
48006;SDS011;33771;48.180;11.400;2023-04-24T14:13:31;3.85;;;1.45;;
48006;SDS011;33771;48.180;11.400;2023-04-24T14:15:57;2.70;;;1.48;;
48006;SDS011;33771;48.180;11.400;2023-04-24T14:18:23;4.93;;;1.73;;
48006;SDS011;33771;48.180;11.400;2023-04-24T14:20:49;6.85;;;1.52;;
48006;SDS011;33771;48.180;11.400;2023-04-24T14:23:15;1.95;;;1.33;;
48006;SDS011;33771;48.180;11.400;2023-04-24T14:25:40;2.13;;;1.33;;
48006;SDS011;33771;48.180;11.400;2023-04-24T14:28:06;4.95;;;1.35;;
48006;SDS011;33771;48.180;11.400;2023-04-24T14:30:32;2.75;;;1.30;;
48006;SDS011;33771;48.180;11.400;2023-04-24T14:32:57;3.28;;;1.30;;
48006;SDS011;33771;48.180;11.400;2023-04-24T14:35:23;6.47;;;1.35;;
48006;SDS011;33771;48.180;11.400;2023-04-24T14:37:48;5.03;;;1.40;;